Ana Sayfa
METAR-TAF:

METAR-TAF

Havaalanları :

El Salvador, El Salvador

Enlem: 13-26N, Boylam: 089-03W, yükseklik: 25 m

Güncel hava durumu gözlemi

Rapor saat 05:50 UTC de 10 dakika önce yapıldı.
Rüzgar değişken yönden 2 kt
Sıcaklık 26°C
Nem 89%
Basınç 1012 hPa
Görüş mesafesi 10 km veya daha fazla
1500 m altında bulut yok ve kümülonimbus yok

METAR: MSLP 230550Z VRB02KT CAVOK 26/24 Q1012 A2989 NOSIG

Saat: 00:00 (06:00 UTC)

Tahmin

Rapor saat 21:25 UTC de 8 saat ve 35 dakika önce yapıldı.
Ayın 23'si saat 00 UTC'den ayın 23'si saat 24 UTC'ye kadar geçerli Tahmin
Rüzgar doğu/kuzeydoğudan 6 kt
Görüş mesafesi 10 km veya daha fazla
7700 ft yükseklikte parçalı bulutlu
Ayın 23'si saat 1800 UTC'den
Rüzgar güney/güneybatıdan 10 kt
Görüş mesafesi 10 km veya daha fazla
3700 ft yükseklikte az bulutlu
4000 ft yükseklikte az bulutlu, Kümülonimbus.

TAF: MSLP 222125Z 2300/2324 06006KT 9999 SCT077 TX33/2318Z TN25/2312Z FM231800 21010KT 9999 FEW037 FEW040CB

4.000'den fazla havaalanı için hava durumu gözlemleri ve tahminleri (METAR ve TAF raporları).

Kullanılabilir istasyonlar harita üzerinde sarı ve kırmızı noktalarla gösterilir.

İstasyonun adını görmek için fareyi noktanın üzerinde gezdirin.

Sonrasında hava gözlem ve tahminlerini görmek için tıklayın.

Haritayı değiştirmek için: yaklaştırmak için siyah artı işaretli yeşil düğmeye ve uzaklaştırmak için de eksi işaretli düğmeye hızla tıklayın; bitişik haritalar için yeşil okları kullanın.


METAR-TAF: